createdAt,value
2018-05-11T00:02:10.100Z,101342.97
2018-05-11T00:04:38.452Z,101349.83
2018-05-11T00:07:06.830Z,101350.70
2018-05-11T00:09:35.170Z,101349.77
2018-05-11T00:12:05.260Z,101357.47
2018-05-11T00:14:34.432Z,101357.93
2018-05-11T00:17:03.653Z,101360.88
2018-05-11T00:19:32.007Z,101363.50
2018-05-11T00:22:00.345Z,101369.05
2018-05-11T00:24:29.456Z,101372.06
2018-05-11T00:26:58.626Z,101376.01
2018-05-11T00:29:27.831Z,101382.48
2018-05-11T00:31:57.835Z,101382.54
2018-05-11T00:34:26.418Z,101378.20
2018-05-11T00:36:54.837Z,101380.88
2018-05-11T00:39:23.768Z,101380.91
2018-05-11T00:41:52.869Z,101385.22
2018-05-11T00:44:22.026Z,101396.05
2018-05-11T00:46:50.475Z,101394.30
2018-05-11T00:49:19.601Z,101396.97
2018-05-11T00:51:49.548Z,101405.58
2018-05-11T00:54:18.017Z,101402.52
2018-05-11T00:56:46.379Z,101412.42
2018-05-11T00:59:14.750Z,101407.73
2018-05-11T01:01:43.186Z,101412.96
2018-05-11T01:04:11.509Z,101409.94
2018-05-11T01:06:39.900Z,101409.03
2018-05-11T01:09:08.396Z,101411.64
2018-05-11T01:11:36.758Z,101418.09
2018-05-11T01:14:05.177Z,101419.91
2018-05-11T01:16:33.977Z,101419.91
2018-05-11T01:19:03.700Z,101423.36
2018-05-11T01:21:33.025Z,101425.91
2018-05-11T01:24:02.107Z,101432.80
2018-05-11T01:26:31.249Z,101431.95
2018-05-11T01:28:59.589Z,101432.34
2018-05-11T01:31:29.499Z,101430.22
2018-05-11T01:33:58.649Z,101424.25
2018-05-11T01:36:27.793Z,101429.02
2018-05-11T01:38:57.026Z,101431.14
2018-05-11T01:41:25.421Z,101447.08
2018-05-11T01:43:53.774Z,101443.17
2018-05-11T01:46:22.869Z,101443.20
2018-05-11T01:48:51.245Z,101450.11
2018-05-11T01:51:19.636Z,101441.10
2018-05-11T01:53:48.045Z,101445.42
2018-05-11T01:56:17.318Z,101448.89
2018-05-11T01:58:46.578Z,101448.43
2018-05-11T02:01:16.834Z,101448.88
2018-05-11T02:03:46.753Z,101448.00
2018-05-11T02:06:15.124Z,101454.05
2018-05-11T02:08:44.954Z,101446.33
2018-05-11T02:11:13.637Z,101446.73
2018-05-11T02:13:42.800Z,101449.78
2018-05-11T02:16:11.923Z,101460.96
2018-05-11T02:18:40.296Z,101451.52
2018-05-11T02:21:09.510Z,101464.45
2018-05-11T02:23:37.838Z,101464.86
2018-05-11T02:26:06.923Z,101467.46
2018-05-11T02:28:35.297Z,101472.19
2018-05-11T02:31:03.651Z,101474.75
2018-05-11T02:33:32.285Z,101475.64
2018-05-11T02:36:00.658Z,101478.22
2018-05-11T02:38:29.789Z,101482.05
2018-05-11T02:40:58.162Z,101480.34
2018-05-11T02:43:26.530Z,101484.20
2018-05-11T02:45:54.853Z,101483.39
2018-05-11T02:48:23.328Z,101482.05
2018-05-11T02:50:51.724Z,101481.16
2018-05-11T02:53:20.073Z,101481.99
2018-05-11T02:55:48.525Z,101482.85
2018-05-11T02:58:16.890Z,101487.58
2018-05-11T03:00:45.518Z,101492.77
2018-05-11T03:03:16.237Z,101491.07
2018-05-11T03:05:44.612Z,101492.38
2018-05-11T03:08:13.622Z,101492.38
2018-05-11T03:10:41.988Z,101499.71
2018-05-11T03:13:10.358Z,101497.60
2018-05-11T03:15:39.565Z,101497.59
2018-05-11T03:18:09.281Z,101504.42
2018-05-11T03:20:37.960Z,101500.98
2018-05-11T03:23:06.311Z,101504.03
2018-05-11T03:25:35.457Z,101510.94
2018-05-11T03:28:03.816Z,101517.81
2018-05-11T03:30:32.188Z,101516.97
2018-05-11T03:33:00.659Z,101520.44
2018-05-11T03:35:28.979Z,101522.58
2018-05-11T03:37:57.402Z,101526.45
2018-05-11T03:40:25.795Z,101522.54
2018-05-11T03:42:54.949Z,101518.28
2018-05-11T03:45:23.332Z,101515.27
2018-05-11T03:47:51.705Z,101516.99
2018-05-11T03:50:20.051Z,101521.70
2018-05-11T03:52:48.405Z,101520.41
2018-05-11T03:55:16.770Z,101519.99
2018-05-11T03:57:45.897Z,101531.19
2018-05-11T04:00:15.190Z,101527.77
2018-05-11T04:03:01.428Z,101531.63
2018-05-11T04:05:48.906Z,101534.63
2018-05-11T04:08:44.159Z,101537.62
2018-05-11T04:11:12.528Z,101545.83
2018-05-11T04:13:40.896Z,101544.55
2018-05-11T04:16:09.288Z,101547.56
2018-05-11T04:18:37.666Z,101547.53
2018-05-11T04:21:06.975Z,101549.27
2018-05-11T04:23:35.321Z,101555.30
2018-05-11T04:26:03.695Z,101554.83
2018-05-11T04:28:32.097Z,101552.28
2018-05-11T04:31:02.133Z,101563.48
2018-05-11T04:33:30.527Z,101561.36
2018-05-11T04:35:59.638Z,101561.78
2018-05-11T04:38:28.030Z,101565.25
2018-05-11T04:40:56.912Z,101578.99
2018-05-11T04:43:26.031Z,101582.44
2018-05-11T04:45:54.370Z,101578.14
2018-05-11T04:48:23.524Z,101578.12
2018-05-11T04:50:51.911Z,101581.57
2018-05-11T04:53:22.065Z,101573.36
2018-05-11T04:55:51.250Z,101576.78
2018-05-11T04:58:19.615Z,101578.05
2018-05-11T05:00:48.156Z,101580.61
2018-05-11T05:03:16.515Z,101585.38
2018-05-11T05:05:45.652Z,101584.46
2018-05-11T05:08:13.987Z,101581.86
2018-05-11T05:10:43.271Z,101582.72
2018-05-11T05:13:12.649Z,101588.77
2018-05-11T05:15:41.058Z,101583.16
2018-05-11T05:18:10.214Z,101582.30
2018-05-11T05:20:38.590Z,101580.17
2018-05-11T05:23:06.983Z,101578.44
2018-05-11T05:25:35.441Z,101580.98
2018-05-11T05:28:03.793Z,101578.89
2018-05-11T05:30:33.129Z,101579.34
2018-05-11T05:33:01.578Z,101581.50
2018-05-11T05:35:31.529Z,101587.91
2018-05-11T05:38:00.331Z,101581.01
2018-05-11T05:40:28.657Z,101590.03
2018-05-11T05:42:58.402Z,101589.13
2018-05-11T05:45:26.831Z,101588.73
2018-05-11T05:47:55.938Z,101586.98
2018-05-11T05:50:27.954Z,101591.31
2018-05-11T05:52:56.358Z,101593.44
2018-05-11T05:55:24.755Z,101590.77
2018-05-11T05:57:55.429Z,101586.00
2018-05-11T06:00:23.801Z,101586.43
2018-05-11T06:02:52.143Z,101585.95
2018-05-11T06:05:21.369Z,101588.06
2018-05-11T06:07:49.788Z,101591.49
2018-05-11T06:10:18.153Z,101593.67
2018-05-11T06:12:46.580Z,101597.66
2018-05-11T06:15:14.973Z,101594.58
2018-05-11T06:17:43.962Z,101597.98
2018-05-11T06:20:12.340Z,101593.24
2018-05-11T06:22:41.503Z,101601.97
2018-05-11T06:25:10.505Z,101602.80
2018-05-11T06:27:38.885Z,101601.91
2018-05-11T06:30:07.499Z,101606.22
2018-05-11T06:32:35.869Z,101603.67
2018-05-11T06:35:05.247Z,101607.61
2018-05-11T06:37:33.993Z,101610.67
2018-05-11T06:40:03.151Z,101598.13
2018-05-11T06:42:35.864Z,101600.17
2018-05-11T06:45:05.214Z,101600.96
2018-05-11T06:47:33.969Z,101593.72
2018-05-11T06:50:03.727Z,101597.20
2018-05-11T06:52:32.892Z,101598.98
2018-05-11T06:55:01.270Z,101597.69
2018-05-11T06:57:29.609Z,101594.59
2018-05-11T06:59:58.928Z,101599.37
2018-05-11T07:02:27.269Z,101602.31
2018-05-11T07:04:55.767Z,101596.19
2018-05-11T07:07:24.244Z,101591.08
2018-05-11T07:09:52.579Z,101591.42
2018-05-11T07:12:21.286Z,101595.66
2018-05-11T07:14:50.621Z,101593.88
2018-05-11T07:17:19.103Z,101592.56
2018-05-11T07:19:47.518Z,101586.08
2018-05-11T07:22:15.913Z,101589.13
2018-05-11T07:24:44.251Z,101583.84
2018-05-11T07:27:12.653Z,101579.00
2018-05-11T07:29:41.030Z,101580.16
2018-05-11T07:32:09.372Z,101575.41
2018-05-11T07:34:39.035Z,101572.05
2018-05-11T07:37:08.222Z,101574.14
2018-05-11T07:39:36.609Z,101571.02
2018-05-11T07:42:04.967Z,101569.17
2018-05-11T07:44:33.345Z,101572.23
2018-05-11T07:47:01.749Z,101573.21
2018-05-11T07:49:30.147Z,101566.19
2018-05-11T07:51:59.764Z,101570.44
2018-05-11T07:54:28.170Z,101565.05
2018-05-11T07:56:56.547Z,101570.97
2018-05-11T07:59:24.884Z,101570.28
2018-05-11T08:01:54.028Z,101570.27
2018-05-11T08:04:22.404Z,101572.87
2018-05-11T08:06:50.741Z,101574.56
2018-05-11T08:09:19.088Z,101572.23
2018-05-11T08:11:47.451Z,101566.87
2018-05-11T08:14:16.168Z,101573.05
2018-05-11T08:16:44.903Z,101571.48
2018-05-11T08:19:15.403Z,101568.34
2018-05-11T08:21:44.623Z,101562.94
2018-05-11T08:24:12.944Z,101566.08
2018-05-11T08:26:41.338Z,101568.52
2018-05-11T08:29:09.667Z,101562.37
2018-05-11T08:31:38.081Z,101560.00
2018-05-11T08:34:06.467Z,101563.89
2018-05-11T08:36:34.900Z,101562.01
2018-05-11T08:39:04.445Z,101563.16
2018-05-11T08:41:33.634Z,101560.79
2018-05-11T08:44:02.047Z,101565.17
2018-05-11T08:46:31.800Z,101565.98
2018-05-11T08:49:00.205Z,101567.92
2018-05-11T08:51:28.636Z,101572.37
2018-05-11T08:53:57.017Z,101566.61
2018-05-11T08:56:25.438Z,101571.27
2018-05-11T08:58:53.802Z,101565.22
2018-05-11T09:01:22.294Z,101563.09
2018-05-11T09:03:50.638Z,101564.09
2018-05-11T09:06:19.057Z,101552.09
2018-05-11T09:08:47.420Z,101551.42
2018-05-11T09:11:15.807Z,101555.75
2018-05-11T09:13:44.198Z,101550.61
2018-05-11T09:16:12.810Z,101548.55
2018-05-11T09:18:42.008Z,101544.90
2018-05-11T09:21:11.201Z,101548.94
2018-05-11T09:23:39.889Z,101551.83
2018-05-11T09:26:09.150Z,101544.98
2018-05-11T09:28:38.360Z,101544.66
2018-05-11T09:31:07.546Z,101540.59
2018-05-11T09:33:35.934Z,101538.87
2018-05-11T09:36:04.323Z,101538.27
2018-05-11T09:38:32.681Z,101536.03
2018-05-11T09:41:01.944Z,101535.03
2018-05-11T09:43:31.086Z,101541.70
2018-05-11T09:45:59.459Z,101540.27
2018-05-11T09:48:27.936Z,101534.84
2018-05-11T09:50:56.423Z,101540.39
2018-05-11T09:53:24.773Z,101546.45
2018-05-11T09:55:53.172Z,101540.90
2018-05-11T09:58:21.578Z,101538.96
2018-05-11T10:00:50.871Z,101545.09
2018-05-11T10:03:19.234Z,101541.82
2018-05-11T10:05:48.642Z,101537.22
2018-05-11T10:08:17.031Z,101535.18
2018-05-11T10:10:45.430Z,101541.95
2018-05-11T10:13:15.639Z,101539.02
2018-05-11T10:15:44.091Z,101538.06
2018-05-11T10:18:12.471Z,101542.78
2018-05-11T10:20:40.873Z,101538.78
2018-05-11T10:23:09.237Z,101539.66
2018-05-11T10:25:37.719Z,101538.84
2018-05-11T10:28:06.115Z,101537.06
2018-05-11T10:30:34.490Z,101536.91
2018-05-11T10:33:02.922Z,101541.45
2018-05-11T10:35:31.324Z,101543.62
2018-05-11T10:37:59.829Z,101543.55
2018-05-11T10:40:28.185Z,101540.17
2018-05-11T10:42:56.607Z,101541.47
2018-05-11T10:45:25.790Z,101544.86
2018-05-11T10:47:54.146Z,101537.41
2018-05-11T10:50:22.529Z,101536.50
2018-05-11T10:52:51.951Z,101542.94
2018-05-11T10:55:20.472Z,101541.53
2018-05-11T10:57:49.680Z,101544.57
2018-05-11T11:00:18.801Z,101544.83
2018-05-11T11:02:47.200Z,101542.69
2018-05-11T11:05:15.577Z,101542.33
2018-05-11T11:07:43.986Z,101542.73
2018-05-11T11:10:15.602Z,101539.55
2018-05-11T11:12:44.040Z,101538.98
2018-05-11T11:15:12.410Z,101540.11
2018-05-11T11:17:40.792Z,101538.64
2018-05-11T11:20:09.999Z,101538.13
2018-05-11T11:22:38.366Z,101537.30
2018-05-11T11:25:07.639Z,101539.25
2018-05-11T11:27:35.980Z,101532.02
2018-05-11T11:30:04.386Z,101525.59
2018-05-11T11:32:32.900Z,101526.27
2018-05-11T11:35:02.922Z,101521.45
2018-05-11T11:37:32.148Z,101519.94
2018-05-11T11:40:00.494Z,101520.06
2018-05-11T11:42:30.042Z,101516.05
2018-05-11T11:44:59.130Z,101515.95
2018-05-11T11:47:28.129Z,101515.31
2018-05-11T11:49:56.834Z,101512.50
2018-05-11T11:52:25.297Z,101511.37
2018-05-11T11:54:53.919Z,101504.28
2018-05-11T11:57:22.282Z,101499.44
2018-05-11T11:59:50.639Z,101508.41
2018-05-11T12:02:22.512Z,101499.62
2018-05-11T12:04:53.436Z,101490.11
2018-05-11T12:07:21.806Z,101486.62
2018-05-11T12:09:50.226Z,101483.81
2018-05-11T12:12:19.084Z,101492.05
2018-05-11T12:14:48.277Z,101491.36
2018-05-11T12:17:17.489Z,101487.27
2018-05-11T12:19:46.270Z,101485.83
2018-05-11T12:22:14.705Z,101486.69
2018-05-11T12:24:43.928Z,101494.09
2018-05-11T12:27:12.355Z,101489.11
2018-05-11T12:29:41.492Z,101483.92
2018-05-11T12:32:10.668Z,101477.32
2018-05-11T12:34:39.849Z,101475.30
2018-05-11T12:37:08.234Z,101480.55
2018-05-11T12:39:36.572Z,101471.06
2018-05-11T12:42:04.916Z,101471.52
2018-05-11T12:44:33.284Z,101473.05
2018-05-11T12:47:02.915Z,101472.59
2018-05-11T12:49:31.375Z,101470.23
2018-05-11T12:52:00.499Z,101466.92
2018-05-11T12:54:29.815Z,101462.88
2018-05-11T12:56:58.290Z,101468.60
2018-05-11T12:59:26.713Z,101467.34
2018-05-11T13:01:55.307Z,101459.05
2018-05-11T13:04:24.624Z,101458.05
2018-05-11T13:06:53.066Z,101452.84
2018-05-11T13:09:21.646Z,101449.22
2018-05-11T13:11:50.021Z,101452.59
2018-05-11T13:14:18.380Z,101448.33
2018-05-11T13:16:46.756Z,101447.34
2018-05-11T13:19:15.322Z,101445.25
2018-05-11T13:21:43.649Z,101436.44
2018-05-11T13:24:12.839Z,101433.59
2018-05-11T13:26:41.233Z,101428.88
2018-05-11T13:29:13.213Z,101423.32
2018-05-11T13:31:42.990Z,101423.84
2018-05-11T13:34:11.360Z,101415.02
2018-05-11T13:36:40.006Z,101415.17
2018-05-11T13:39:09.224Z,101413.86
2018-05-11T13:41:37.611Z,101407.63
2018-05-11T13:44:05.977Z,101411.54
2018-05-11T13:46:34.357Z,101408.09
2018-05-11T13:49:04.197Z,101412.28
2018-05-11T13:51:33.154Z,101407.01
2018-05-11T13:54:01.543Z,101406.11
2018-05-11T13:56:29.938Z,101405.45
2018-05-11T13:58:59.047Z,101399.33
2018-05-11T14:01:27.432Z,101405.31
2018-05-11T14:03:55.784Z,101396.22
2018-05-11T14:06:24.863Z,101390.02
2018-05-11T14:08:53.241Z,101385.84
2018-05-11T14:11:21.588Z,101387.52
2018-05-11T14:13:50.829Z,101379.96
2018-05-11T14:16:19.837Z,101383.66
2018-05-11T14:18:48.273Z,101376.30
2018-05-11T14:21:17.409Z,101382.95
2018-05-11T14:23:45.750Z,101377.28
2018-05-11T14:26:15.614Z,101372.32
2018-05-11T14:28:43.994Z,101382.44
2018-05-11T14:31:13.173Z,101377.31
2018-05-11T14:33:41.559Z,101376.42
2018-05-11T14:36:09.968Z,101372.60
2018-05-11T14:38:38.601Z,101372.26
2018-05-11T14:41:06.962Z,101368.72
2018-05-11T14:43:36.401Z,101371.12
2018-05-11T14:46:05.725Z,101371.53
2018-05-11T14:48:34.089Z,101364.89
2018-05-11T14:51:02.672Z,101358.45
2018-05-11T14:53:31.984Z,101348.97
2018-05-11T14:56:00.377Z,101343.54
2018-05-11T14:58:28.756Z,101348.52
2018-05-11T15:00:57.324Z,101349.02
2018-05-11T15:03:25.705Z,101343.88
2018-05-11T15:05:54.068Z,101346.44
2018-05-11T15:08:23.343Z,101348.52
2018-05-11T15:10:51.784Z,101352.30
2018-05-11T15:13:20.346Z,101350.41
2018-05-11T15:15:48.806Z,101354.83
2018-05-11T15:18:17.144Z,101347.91
2018-05-11T15:20:48.140Z,101339.08
2018-05-11T15:23:17.246Z,101343.02
2018-05-11T15:25:46.038Z,101339.81
2018-05-11T15:28:14.457Z,101336.02
2018-05-11T15:30:44.155Z,101333.09
2018-05-11T15:33:13.932Z,101329.96
2018-05-11T15:35:42.316Z,101324.25
2018-05-11T15:38:10.693Z,101319.59
2018-05-11T15:40:39.126Z,101321.58
2018-05-11T15:43:08.250Z,101320.61
2018-05-11T15:45:37.553Z,101317.30
2018-05-11T15:48:05.907Z,101322.35
2018-05-11T15:50:34.245Z,101311.60
2018-05-11T15:53:03.223Z,101311.89
2018-05-11T15:55:31.617Z,101306.50
2018-05-11T15:57:59.998Z,101307.72
2018-05-11T16:00:28.450Z,101302.47
2018-05-11T16:02:56.836Z,101304.47
2018-05-11T16:05:26.005Z,101303.63
2018-05-11T16:07:54.348Z,101303.06
2018-05-11T16:10:23.454Z,101304.34
2018-05-11T16:12:52.716Z,101304.72
2018-05-11T16:15:21.428Z,101303.91
2018-05-11T16:17:50.616Z,101306.80
2018-05-11T16:20:19.063Z,101304.19
2018-05-11T16:22:47.541Z,101301.61
2018-05-11T16:25:15.960Z,101301.81
2018-05-11T16:27:45.115Z,101305.39
2018-05-11T16:30:13.688Z,101310.63
2018-05-11T16:32:42.081Z,101296.48
2018-05-11T16:35:10.499Z,101301.95
2018-05-11T16:37:39.815Z,101299.03
2018-05-11T16:40:09.090Z,101296.66
2018-05-11T16:42:37.531Z,101296.14
2018-05-11T16:45:06.011Z,101291.66
2018-05-11T16:47:34.352Z,101289.72
2018-05-11T16:50:03.554Z,101286.19
2018-05-11T16:52:31.881Z,101291.72
2018-05-11T16:55:00.232Z,101290.67
2018-05-11T16:57:29.844Z,101289.33
2018-05-11T16:59:58.160Z,101281.42
2018-05-11T17:02:26.540Z,101271.73
2018-05-11T17:04:55.702Z,101278.97
2018-05-11T17:07:24.036Z,101286.77
2018-05-11T17:09:53.156Z,101283.59
2018-05-11T17:12:21.553Z,101279.22
2018-05-11T17:14:49.968Z,101284.42
2018-05-11T17:17:18.366Z,101290.63
2018-05-11T17:19:47.460Z,101291.55
2018-05-11T17:22:16.547Z,101290.39
2018-05-11T17:24:45.058Z,101289.16
2018-05-11T17:27:13.369Z,101288.75
2018-05-11T17:29:41.778Z,101287.02
2018-05-11T17:32:10.129Z,101286.27
2018-05-11T17:34:38.522Z,101283.11
2018-05-11T17:37:07.689Z,101280.22
2018-05-11T17:39:36.047Z,101285.15
2018-05-11T17:42:04.376Z,101282.17
2018-05-11T17:44:32.773Z,101284.31
2018-05-11T17:47:01.129Z,101283.41
2018-05-11T17:49:29.535Z,101289.19
2018-05-11T17:51:58.640Z,101284.47
2018-05-11T17:54:28.471Z,101284.11
2018-05-11T17:56:56.841Z,101289.44
2018-05-11T17:59:25.987Z,101281.73
2018-05-11T18:01:54.755Z,101289.47
2018-05-11T18:04:23.099Z,101289.88
2018-05-11T18:06:52.201Z,101288.61
2018-05-11T18:09:21.336Z,101296.05
2018-05-11T18:11:51.050Z,101295.80
2018-05-11T18:14:20.954Z,101291.70
2018-05-11T18:16:49.323Z,101285.28
2018-05-11T18:19:17.695Z,101290.93
2018-05-11T18:21:46.073Z,101289.28
2018-05-11T18:24:14.394Z,101288.05
2018-05-11T18:26:42.764Z,101290.39
2018-05-11T18:29:11.129Z,101293.67
2018-05-11T18:31:39.465Z,101294.30
2018-05-11T18:34:09.925Z,101294.02
2018-05-11T18:36:38.988Z,101297.16
2018-05-11T18:39:08.108Z,101296.41
2018-05-11T18:41:36.476Z,101298.23
2018-05-11T18:44:05.067Z,101290.28
2018-05-11T18:46:33.481Z,101289.11
2018-05-11T18:49:02.030Z,101297.63
2018-05-11T18:51:30.502Z,101296.20
2018-05-11T18:53:59.401Z,101297.30
2018-05-11T18:56:28.133Z,101296.09
2018-05-11T18:58:56.524Z,101300.97
2018-05-11T19:01:24.873Z,101301.04
2018-05-11T19:03:53.246Z,101302.03
2018-05-11T19:06:21.597Z,101308.67
2018-05-11T19:08:50.335Z,101316.59
2018-05-11T19:11:18.689Z,101316.30
2018-05-11T19:13:47.199Z,101316.83
2018-05-11T19:16:15.643Z,101319.53
2018-05-11T19:18:43.993Z,101317.45
2018-05-11T19:21:12.434Z,101317.92
2018-05-11T19:23:40.874Z,101312.33
2018-05-11T19:26:09.307Z,101313.74
2018-05-11T19:28:37.807Z,101317.23
2018-05-11T19:31:07.218Z,101317.30
2018-05-11T19:33:36.334Z,101312.11
2018-05-11T19:36:05.022Z,101315.21
2018-05-11T19:38:33.376Z,101322.63
2018-05-11T19:41:02.791Z,101321.84
2018-05-11T19:43:31.985Z,101326.25
2018-05-11T19:46:00.362Z,101324.08
2018-05-11T19:48:29.570Z,101323.73
2018-05-11T19:50:58.071Z,101322.00
2018-05-11T19:53:26.546Z,101326.05
2018-05-11T19:55:54.903Z,101329.97
2018-05-11T19:58:23.941Z,101332.65
2018-05-11T20:00:53.188Z,101338.80
2018-05-11T20:03:22.465Z,101334.46
2018-05-11T20:05:50.822Z,101334.28
2018-05-11T20:08:19.248Z,101337.32
2018-05-11T20:10:48.451Z,101339.84
2018-05-11T20:13:17.638Z,101344.20
2018-05-11T20:15:47.369Z,101337.01
2018-05-11T20:18:16.606Z,101337.88
2018-05-11T20:20:44.964Z,101340.92
2018-05-11T20:23:13.333Z,101336.57
2018-05-11T20:25:41.731Z,101344.27
2018-05-11T20:28:10.147Z,101347.23
2018-05-11T20:30:39.914Z,101347.84
2018-05-11T20:33:08.262Z,101346.34
2018-05-11T20:35:36.628Z,101349.05
2018-05-11T20:38:05.785Z,101352.24
2018-05-11T20:40:35.165Z,101351.86
2018-05-11T20:43:03.681Z,101350.08
2018-05-11T20:45:32.229Z,101351.86
2018-05-11T20:48:01.680Z,101351.42
2018-05-11T20:50:30.048Z,101349.28
2018-05-11T20:52:59.322Z,101350.30
2018-05-11T20:55:27.676Z,101351.62
2018-05-11T20:57:56.038Z,101354.62
2018-05-11T21:00:24.392Z,101346.78
2018-05-11T21:02:52.754Z,101345.55
2018-05-11T21:05:21.097Z,101346.07
2018-05-11T21:07:49.484Z,101348.81
2018-05-11T21:10:17.813Z,101348.46
2018-05-11T21:12:46.925Z,101341.75
2018-05-11T21:15:15.357Z,101341.31
2018-05-11T21:17:44.271Z,101350.48
2018-05-11T21:20:13.550Z,101346.13
2018-05-11T21:22:41.936Z,101347.93
2018-05-11T21:25:10.390Z,101351.89
2018-05-11T21:27:39.150Z,101356.66
2018-05-11T21:30:08.340Z,101355.87
2018-05-11T21:32:36.721Z,101355.52
2018-05-11T21:35:05.909Z,101360.35
2018-05-11T21:37:34.269Z,101358.27
2018-05-11T21:40:03.601Z,101362.27
2018-05-11T21:42:32.016Z,101364.94
2018-05-11T21:45:00.489Z,101365.02
2018-05-11T21:47:28.849Z,101363.72
2018-05-11T21:49:57.214Z,101359.45
2018-05-11T21:52:25.603Z,101366.02
2018-05-11T21:54:55.056Z,101363.63
2018-05-11T21:57:23.725Z,101361.95
2018-05-11T21:59:53.421Z,101361.60
2018-05-11T22:02:26.984Z,101362.83
2018-05-11T22:04:55.977Z,101368.82
2018-05-11T22:07:24.417Z,101366.72
2018-05-11T22:09:53.286Z,101364.75
2018-05-11T22:12:21.900Z,101363.70
2018-05-11T22:14:50.772Z,101361.55
2018-05-11T22:17:19.231Z,101360.31
2018-05-11T22:19:48.407Z,101362.52
2018-05-11T22:22:16.817Z,101368.70
2018-05-11T22:24:45.167Z,101353.77
2018-05-11T22:27:13.539Z,101362.05
2018-05-11T22:29:43.372Z,101352.59
2018-05-11T22:32:11.847Z,101356.09
2018-05-11T22:34:40.209Z,101358.09
2018-05-11T22:37:10.327Z,101356.48
2018-05-11T22:39:40.912Z,101352.75
2018-05-11T22:42:09.279Z,101352.70
2018-05-11T22:44:37.866Z,101353.52
2018-05-11T22:47:06.237Z,101353.02
2018-05-11T22:49:34.629Z,101354.75
2018-05-11T22:52:03.908Z,101353.03
2018-05-11T22:54:32.283Z,101342.65
2018-05-11T22:57:00.748Z,101340.86
2018-05-11T22:59:29.153Z,101342.95
2018-05-11T23:01:58.509Z,101337.66
2018-05-11T23:04:29.371Z,101329.82
2018-05-11T23:06:57.945Z,101328.48
2018-05-11T23:09:27.156Z,101332.80
2018-05-11T23:11:55.650Z,101330.30
2018-05-11T23:14:25.330Z,101325.97
2018-05-11T23:16:54.761Z,101328.95
2018-05-11T23:19:23.178Z,101322.05
2018-05-11T23:21:51.535Z,101319.83
2018-05-11T23:24:19.910Z,101314.23
2018-05-11T23:26:49.025Z,101310.31
2018-05-11T23:29:17.669Z,101307.17
2018-05-11T23:31:46.933Z,101305.76
2018-05-11T23:34:15.571Z,101301.41
2018-05-11T23:36:44.882Z,101303.45
2018-05-11T23:39:13.267Z,101297.75
2018-05-11T23:41:41.716Z,101299.85
2018-05-11T23:44:10.055Z,101291.15
2018-05-11T23:46:39.172Z,101288.13
2018-05-11T23:49:08.289Z,101285.44
2018-05-11T23:51:36.641Z,101287.60
2018-05-11T23:54:05.738Z,101281.06
2018-05-11T23:56:34.839Z,101285.80
2018-05-11T23:59:04.630Z,101281.03
